sensor_id;sensor_type;location;lat;lon;timestamp;temperature;humidity
2929;DHT22;1474;51.460;7.150;2022-09-20T00:00:25;10.30;99.90
2929;DHT22;1474;51.460;7.150;2022-09-20T00:02:51;10.30;99.90
2929;DHT22;1474;51.460;7.150;2022-09-20T00:05:17;10.30;99.90
2929;DHT22;1474;51.460;7.150;2022-09-20T00:07:44;10.30;99.90
2929;DHT22;1474;51.460;7.150;2022-09-20T00:10:10;10.30;99.90
2929;DHT22;1474;51.460;7.150;2022-09-20T00:12:36;10.30;99.90
2929;DHT22;1474;51.460;7.150;2022-09-20T00:15:03;10.30;99.90
2929;DHT22;1474;51.460;7.150;2022-09-20T00:17:28;10.30;99.90
2929;DHT22;1474;51.460;7.150;2022-09-20T00:19:54;10.30;99.90
2929;DHT22;1474;51.460;7.150;2022-09-20T00:22:20;10.20;99.90
2929;DHT22;1474;51.460;7.150;2022-09-20T00:24:45;10.30;99.90
2929;DHT22;1474;51.460;7.150;2022-09-20T00:27:12;10.20;99.90
2929;DHT22;1474;51.460;7.150;2022-09-20T00:29:37;10.30;99.90
2929;DHT22;1474;51.460;7.150;2022-09-20T00:32:03;10.20;99.90
2929;DHT22;1474;51.460;7.150;2022-09-20T00:34:29;10.20;99.90
2929;DHT22;1474;51.460;7.150;2022-09-20T00:37:13;10.20;99.90
2929;DHT22;1474;51.460;7.150;2022-09-20T00:39:39;10.20;99.90
2929;DHT22;1474;51.460;7.150;2022-09-20T00:42:04;10.10;99.90
2929;DHT22;1474;51.460;7.150;2022-09-20T00:47:44;10.10;99.90
2929;DHT22;1474;51.460;7.150;2022-09-20T00:50:25;10.10;99.90
2929;DHT22;1474;51.460;7.150;2022-09-20T00:56:06;10.00;99.90
2929;DHT22;1474;51.460;7.150;2022-09-20T00:58:37;10.00;99.90
2929;DHT22;1474;51.460;7.150;2022-09-20T01:01:04;10.00;99.90
2929;DHT22;1474;51.460;7.150;2022-09-20T01:03:33;10.00;99.90
2929;DHT22;1474;51.460;7.150;2022-09-20T01:06:03;10.00;99.90
2929;DHT22;1474;51.460;7.150;2022-09-20T01:08:31;10.10;99.90
2929;DHT22;1474;51.460;7.150;2022-09-20T01:10:58;10.00;99.90
2929;DHT22;1474;51.460;7.150;2022-09-20T01:13:23;10.00;99.90
2929;DHT22;1474;51.460;7.150;2022-09-20T01:15:49;10.00;99.90
2929;DHT22;1474;51.460;7.150;2022-09-20T01:18:16;10.00;99.90
2929;DHT22;1474;51.460;7.150;2022-09-20T01:20:44;10.00;99.90
2929;DHT22;1474;51.460;7.150;2022-09-20T01:26:02;10.00;99.90
2929;DHT22;1474;51.460;7.150;2022-09-20T01:28:30;10.00;99.90
2929;DHT22;1474;51.460;7.150;2022-09-20T01:33:56;10.00;99.90
2929;DHT22;1474;51.460;7.150;2022-09-20T01:36:56;10.00;99.90
2929;DHT22;1474;51.460;7.150;2022-09-20T01:39:42;10.00;99.90
2929;DHT22;1474;51.460;7.150;2022-09-20T01:42:12;10.00;99.90
2929;DHT22;1474;51.460;7.150;2022-09-20T02:04:09;9.80;99.90
2929;DHT22;1474;51.460;7.150;2022-09-20T02:06:55;9.80;99.90
2929;DHT22;1474;51.460;7.150;2022-09-20T02:28:50;9.70;99.90
2929;DHT22;1474;51.460;7.150;2022-09-20T02:34:25;9.70;99.90
2929;DHT22;1474;51.460;7.150;2022-09-20T02:45:22;9.60;99.90
2929;DHT22;1474;51.460;7.150;2022-09-20T02:47:52;9.60;99.90
2929;DHT22;1474;51.460;7.150;2022-09-20T02:50:39;9.60;99.90
2929;DHT22;1474;51.460;7.150;2022-09-20T02:53:30;9.60;99.90
2929;DHT22;1474;51.460;7.150;2022-09-20T03:01:47;9.60;99.90
2929;DHT22;1474;51.460;7.150;2022-09-20T03:07:41;9.60;99.90
2929;DHT22;1474;51.460;7.150;2022-09-20T03:10:15;9.50;99.90
2929;DHT22;1474;51.460;7.150;2022-09-20T03:18:25;9.50;99.90
2929;DHT22;1474;51.460;7.150;2022-09-20T03:21:11;9.40;99.90
2929;DHT22;1474;51.460;7.150;2022-09-20T03:35:59;9.30;99.90
2929;DHT22;1474;51.460;7.150;2022-09-20T03:44:07;9.20;99.90
2929;DHT22;1474;51.460;7.150;2022-09-20T03:46:45;9.20;99.90
2929;DHT22;1474;51.460;7.150;2022-09-20T03:52:50;9.20;99.90
2929;DHT22;1474;51.460;7.150;2022-09-20T03:55:43;9.20;99.90
2929;DHT22;1474;51.460;7.150;2022-09-20T04:06:26;9.10;99.90
2929;DHT22;1474;51.460;7.150;2022-09-20T04:09:12;9.10;99.90
2929;DHT22;1474;51.460;7.150;2022-09-20T04:12:05;9.10;99.90
2929;DHT22;1474;51.460;7.150;2022-09-20T04:26:04;9.20;99.90
2929;DHT22;1474;51.460;7.150;2022-09-20T04:28:32;9.20;99.90
2929;DHT22;1474;51.460;7.150;2022-09-20T04:31:05;9.30;99.90
2929;DHT22;1474;51.460;7.150;2022-09-20T04:33:41;9.30;99.90
2929;DHT22;1474;51.460;7.150;2022-09-20T04:41:55;9.40;99.90
2929;DHT22;1474;51.460;7.150;2022-09-20T04:53:52;9.50;99.90
2929;DHT22;1474;51.460;7.150;2022-09-20T04:56:52;9.60;99.90
2929;DHT22;1474;51.460;7.150;2022-09-20T05:16:20;9.80;99.90
2929;DHT22;1474;51.460;7.150;2022-09-20T05:27:50;9.90;99.90
2929;DHT22;1474;51.460;7.150;2022-09-20T05:33:06;9.90;99.90
2929;DHT22;1474;51.460;7.150;2022-09-20T05:36:03;10.00;99.90
2929;DHT22;1474;51.460;7.150;2022-09-20T05:41:44;10.00;99.90
2929;DHT22;1474;51.460;7.150;2022-09-20T05:47:06;10.10;99.90
2929;DHT22;1474;51.460;7.150;2022-09-20T05:52:56;10.10;99.90
2929;DHT22;1474;51.460;7.150;2022-09-20T06:01:42;10.30;99.90
2929;DHT22;1474;51.460;7.150;2022-09-20T06:04:34;10.30;99.90
2929;DHT22;1474;51.460;7.150;2022-09-20T06:15:19;10.40;99.90
2929;DHT22;1474;51.460;7.150;2022-09-20T06:20:53;10.40;99.90
2929;DHT22;1474;51.460;7.150;2022-09-20T06:23:22;10.40;99.90
2929;DHT22;1474;51.460;7.150;2022-09-20T06:25:52;10.40;99.90
2929;DHT22;1474;51.460;7.150;2022-09-20T06:28:24;10.40;99.90
2929;DHT22;1474;51.460;7.150;2022-09-20T06:30:53;10.40;99.90
2929;DHT22;1474;51.460;7.150;2022-09-20T06:33:24;10.40;99.90
2929;DHT22;1474;51.460;7.150;2022-09-20T06:35:57;10.50;99.90
2929;DHT22;1474;51.460;7.150;2022-09-20T06:39:15;10.60;99.90
2929;DHT22;1474;51.460;7.150;2022-09-20T06:41:56;10.60;99.90
2929;DHT22;1474;51.460;7.150;2022-09-20T06:44:22;10.70;99.90
2929;DHT22;1474;51.460;7.150;2022-09-20T06:46:48;10.80;99.90
2929;DHT22;1474;51.460;7.150;2022-09-20T06:49:17;10.90;99.90
2929;DHT22;1474;51.460;7.150;2022-09-20T06:51:43;10.90;99.90
2929;DHT22;1474;51.460;7.150;2022-09-20T06:54:14;11.00;99.90
2929;DHT22;1474;51.460;7.150;2022-09-20T06:56:43;11.10;99.90
2929;DHT22;1474;51.460;7.150;2022-09-20T06:59:09;11.20;99.90
2929;DHT22;1474;51.460;7.150;2022-09-20T07:01:36;11.20;99.90
2929;DHT22;1474;51.460;7.150;2022-09-20T07:04:03;11.20;99.90
2929;DHT22;1474;51.460;7.150;2022-09-20T07:06:31;11.30;99.90
2929;DHT22;1474;51.460;7.150;2022-09-20T07:08:56;11.30;99.90
2929;DHT22;1474;51.460;7.150;2022-09-20T07:11:22;11.30;99.90
2929;DHT22;1474;51.460;7.150;2022-09-20T07:13:53;11.30;99.90
2929;DHT22;1474;51.460;7.150;2022-09-20T07:16:19;11.40;99.90
2929;DHT22;1474;51.460;7.150;2022-09-20T07:18:45;11.50;99.90
2929;DHT22;1474;51.460;7.150;2022-09-20T07:21:16;11.60;99.90
2929;DHT22;1474;51.460;7.150;2022-09-20T07:23:42;11.60;99.90
2929;DHT22;1474;51.460;7.150;2022-09-20T07:26:24;11.70;99.90
2929;DHT22;1474;51.460;7.150;2022-09-20T07:28:53;11.80;99.90
2929;DHT22;1474;51.460;7.150;2022-09-20T07:31:22;11.90;99.90
2929;DHT22;1474;51.460;7.150;2022-09-20T07:33:48;12.00;99.90
2929;DHT22;1474;51.460;7.150;2022-09-20T07:36:14;12.00;99.90
2929;DHT22;1474;51.460;7.150;2022-09-20T07:38:41;12.00;99.90
2929;DHT22;1474;51.460;7.150;2022-09-20T07:41:08;12.00;99.90
2929;DHT22;1474;51.460;7.150;2022-09-20T07:43:35;12.00;99.90
2929;DHT22;1474;51.460;7.150;2022-09-20T07:46:01;12.00;99.90
2929;DHT22;1474;51.460;7.150;2022-09-20T07:48:32;12.20;99.90
2929;DHT22;1474;51.460;7.150;2022-09-20T07:51:02;12.30;99.90
2929;DHT22;1474;51.460;7.150;2022-09-20T07:53:28;12.50;99.90
2929;DHT22;1474;51.460;7.150;2022-09-20T07:56:09;12.60;99.90
2929;DHT22;1474;51.460;7.150;2022-09-20T07:58:35;12.70;99.90
2929;DHT22;1474;51.460;7.150;2022-09-20T08:01:09;12.70;99.90
2929;DHT22;1474;51.460;7.150;2022-09-20T08:03:36;12.70;99.90
2929;DHT22;1474;51.460;7.150;2022-09-20T08:06:11;12.80;99.90
2929;DHT22;1474;51.460;7.150;2022-09-20T08:08:41;12.80;99.90
2929;DHT22;1474;51.460;7.150;2022-09-20T08:11:10;12.80;99.90
2929;DHT22;1474;51.460;7.150;2022-09-20T08:13:44;12.80;99.90
2929;DHT22;1474;51.460;7.150;2022-09-20T08:16:11;12.80;99.90
2929;DHT22;1474;51.460;7.150;2022-09-20T08:18:39;12.80;99.90
2929;DHT22;1474;51.460;7.150;2022-09-20T08:21:09;12.90;99.90
2929;DHT22;1474;51.460;7.150;2022-09-20T08:23:36;13.00;99.90
2929;DHT22;1474;51.460;7.150;2022-09-20T08:26:03;13.20;99.90
2929;DHT22;1474;51.460;7.150;2022-09-20T08:28:30;13.20;99.90
2929;DHT22;1474;51.460;7.150;2022-09-20T08:31:03;13.20;99.90
2929;DHT22;1474;51.460;7.150;2022-09-20T08:33:29;13.20;99.90
2929;DHT22;1474;51.460;7.150;2022-09-20T08:35:55;13.20;99.90
2929;DHT22;1474;51.460;7.150;2022-09-20T08:38:21;13.30;99.90
2929;DHT22;1474;51.460;7.150;2022-09-20T08:40:56;13.30;99.90
2929;DHT22;1474;51.460;7.150;2022-09-20T08:43:28;13.40;99.90
2929;DHT22;1474;51.460;7.150;2022-09-20T08:46:01;13.50;99.90
2929;DHT22;1474;51.460;7.150;2022-09-20T08:48:30;13.60;99.90
2929;DHT22;1474;51.460;7.150;2022-09-20T08:51:01;13.70;99.90
2929;DHT22;1474;51.460;7.150;2022-09-20T08:53:28;13.80;99.90
2929;DHT22;1474;51.460;7.150;2022-09-20T08:55:57;13.90;99.90
2929;DHT22;1474;51.460;7.150;2022-09-20T08:58:25;14.00;99.90
2929;DHT22;1474;51.460;7.150;2022-09-20T09:00:51;14.00;99.90
2929;DHT22;1474;51.460;7.150;2022-09-20T09:03:18;14.00;99.90
2929;DHT22;1474;51.460;7.150;2022-09-20T09:05:48;14.00;99.90
2929;DHT22;1474;51.460;7.150;2022-09-20T09:08:17;14.00;99.90
2929;DHT22;1474;51.460;7.150;2022-09-20T09:10:50;14.00;99.90
2929;DHT22;1474;51.460;7.150;2022-09-20T09:16:31;14.10;99.90
2929;DHT22;1474;51.460;7.150;2022-09-20T09:18:57;14.20;99.90
2929;DHT22;1474;51.460;7.150;2022-09-20T09:21:43;14.30;99.90
2929;DHT22;1474;51.460;7.150;2022-09-20T09:24:18;14.40;99.90
2929;DHT22;1474;51.460;7.150;2022-09-20T09:26:44;14.70;99.90
2929;DHT22;1474;51.460;7.150;2022-09-20T09:29:23;14.80;99.90
2929;DHT22;1474;51.460;7.150;2022-09-20T09:31:50;14.80;99.90
2929;DHT22;1474;51.460;7.150;2022-09-20T09:34:30;14.90;99.90
2929;DHT22;1474;51.460;7.150;2022-09-20T09:36:56;15.00;99.90
2929;DHT22;1474;51.460;7.150;2022-09-20T09:39:35;15.10;99.90
2929;DHT22;1474;51.460;7.150;2022-09-20T09:42:19;15.00;99.90
2929;DHT22;1474;51.460;7.150;2022-09-20T09:44:45;15.00;99.90
2929;DHT22;1474;51.460;7.150;2022-09-20T09:47:27;15.00;99.90
2929;DHT22;1474;51.460;7.150;2022-09-20T09:49:59;15.00;99.90
2929;DHT22;1474;51.460;7.150;2022-09-20T09:52:25;14.90;99.90
2929;DHT22;1474;51.460;7.150;2022-09-20T09:54:58;14.80;99.90
2929;DHT22;1474;51.460;7.150;2022-09-20T10:05:22;14.70;99.90
2929;DHT22;1474;51.460;7.150;2022-09-20T10:11:10;14.60;99.90
2929;DHT22;1474;51.460;7.150;2022-09-20T10:13:48;14.70;99.90
2929;DHT22;1474;51.460;7.150;2022-09-20T10:16:53;14.70;99.90
2929;DHT22;1474;51.460;7.150;2022-09-20T10:19:31;14.80;99.90
2929;DHT22;1474;51.460;7.150;2022-09-20T10:27:27;14.90;99.90
2929;DHT22;1474;51.460;7.150;2022-09-20T10:32:30;14.90;99.90
2929;DHT22;1474;51.460;7.150;2022-09-20T10:35:12;14.90;99.90
2929;DHT22;1474;51.460;7.150;2022-09-20T11:08:48;15.90;99.90
2929;DHT22;1474;51.460;7.150;2022-09-20T11:11:22;15.90;99.90
2929;DHT22;1474;51.460;7.150;2022-09-20T11:13:57;15.90;99.90
2929;DHT22;1474;51.460;7.150;2022-09-20T11:16:37;15.90;99.90
2929;DHT22;1474;51.460;7.150;2022-09-20T11:21:42;15.90;99.90
2929;DHT22;1474;51.460;7.150;2022-09-20T11:24:32;15.80;99.90
2929;DHT22;1474;51.460;7.150;2022-09-20T11:27:11;15.80;99.90
2929;DHT22;1474;51.460;7.150;2022-09-20T11:32:40;16.00;99.90
2929;DHT22;1474;51.460;7.150;2022-09-20T11:37:56;16.50;99.90
2929;DHT22;1474;51.460;7.150;2022-09-20T11:40:30;16.60;99.90
2929;DHT22;1474;51.460;7.150;2022-09-20T11:42:58;16.60;99.90
2929;DHT22;1474;51.460;7.150;2022-09-20T11:45:26;16.60;99.90
2929;DHT22;1474;51.460;7.150;2022-09-20T11:47:57;16.50;99.90
2929;DHT22;1474;51.460;7.150;2022-09-20T11:50:46;16.50;99.90
2929;DHT22;1474;51.460;7.150;2022-09-20T11:53:38;16.50;99.90
2929;DHT22;1474;51.460;7.150;2022-09-20T11:56:21;16.50;99.90
2929;DHT22;1474;51.460;7.150;2022-09-20T11:58:48;16.50;99.90
2929;DHT22;1474;51.460;7.150;2022-09-20T12:01:22;16.40;99.90
2929;DHT22;1474;51.460;7.150;2022-09-20T12:03:51;16.30;99.90
2929;DHT22;1474;51.460;7.150;2022-09-20T12:06:34;16.40;99.90
2929;DHT22;1474;51.460;7.150;2022-09-20T12:09:05;16.30;99.90
2929;DHT22;1474;51.460;7.150;2022-09-20T12:11:35;16.20;99.90
2929;DHT22;1474;51.460;7.150;2022-09-20T12:14:38;16.20;99.90
2929;DHT22;1474;51.460;7.150;2022-09-20T12:17:05;16.10;99.90
2929;DHT22;1474;51.460;7.150;2022-09-20T12:24:27;15.90;99.90
2929;DHT22;1474;51.460;7.150;2022-09-20T12:27:01;15.80;99.90
2929;DHT22;1474;51.460;7.150;2022-09-20T12:32:00;15.90;99.90
2929;DHT22;1474;51.460;7.150;2022-09-20T12:42:37;15.90;99.90
2929;DHT22;1474;51.460;7.150;2022-09-20T12:47:32;16.20;99.90
2929;DHT22;1474;51.460;7.150;2022-09-20T12:50:00;16.30;99.90
2929;DHT22;1474;51.460;7.150;2022-09-20T12:55:53;16.40;99.90
2929;DHT22;1474;51.460;7.150;2022-09-20T12:59:04;16.40;99.90
2929;DHT22;1474;51.460;7.150;2022-09-20T13:01:26;16.60;99.90
2929;DHT22;1474;51.460;7.150;2022-09-20T13:04:39;16.80;99.90
2929;DHT22;1474;51.460;7.150;2022-09-20T13:10:15;17.00;99.90
2929;DHT22;1474;51.460;7.150;2022-09-20T13:12:44;17.00;99.90
2929;DHT22;1474;51.460;7.150;2022-09-20T13:15:18;17.10;99.90
2929;DHT22;1474;51.460;7.150;2022-09-20T13:17:48;17.20;99.90
2929;DHT22;1474;51.460;7.150;2022-09-20T13:20:26;17.20;99.90
2929;DHT22;1474;51.460;7.150;2022-09-20T13:22:58;17.10;99.90
2929;DHT22;1474;51.460;7.150;2022-09-20T13:25:29;16.90;99.90
2929;DHT22;1474;51.460;7.150;2022-09-20T13:28:37;16.90;99.90
2929;DHT22;1474;51.460;7.150;2022-09-20T13:31:15;17.10;99.90
2929;DHT22;1474;51.460;7.150;2022-09-20T13:33:47;17.30;99.90
2929;DHT22;1474;51.460;7.150;2022-09-20T13:36:18;17.40;99.90
2929;DHT22;1474;51.460;7.150;2022-09-20T13:38:49;17.60;99.90
2929;DHT22;1474;51.460;7.150;2022-09-20T13:41:15;17.80;98.80
2929;DHT22;1474;51.460;7.150;2022-09-20T13:43:46;17.80;99.00
2929;DHT22;1474;51.460;7.150;2022-09-20T13:46:22;17.60;99.10
2929;DHT22;1474;51.460;7.150;2022-09-20T13:49:14;17.50;99.90
2929;DHT22;1474;51.460;7.150;2022-09-20T13:51:39;17.40;98.80
2929;DHT22;1474;51.460;7.150;2022-09-20T13:54:27;17.10;98.50
2929;DHT22;1474;51.460;7.150;2022-09-20T13:57:05;17.00;97.80
2929;DHT22;1474;51.460;7.150;2022-09-20T13:59:42;16.70;99.00
2929;DHT22;1474;51.460;7.150;2022-09-20T14:02:27;16.60;99.00
2929;DHT22;1474;51.460;7.150;2022-09-20T14:04:55;16.50;99.20
2929;DHT22;1474;51.460;7.150;2022-09-20T14:07:23;16.30;99.80
2929;DHT22;1474;51.460;7.150;2022-09-20T14:09:53;16.30;99.90
2929;DHT22;1474;51.460;7.150;2022-09-20T14:12:20;16.30;99.90
2929;DHT22;1474;51.460;7.150;2022-09-20T14:14:47;16.30;99.90
2929;DHT22;1474;51.460;7.150;2022-09-20T14:17:16;16.30;99.90
2929;DHT22;1474;51.460;7.150;2022-09-20T14:19:47;16.30;99.90
2929;DHT22;1474;51.460;7.150;2022-09-20T14:22:23;16.10;99.90
2929;DHT22;1474;51.460;7.150;2022-09-20T14:27:37;16.10;99.90
2929;DHT22;1474;51.460;7.150;2022-09-20T14:30:04;16.10;99.90
2929;DHT22;1474;51.460;7.150;2022-09-20T14:32:48;16.10;99.90
2929;DHT22;1474;51.460;7.150;2022-09-20T14:35:20;16.20;99.90
2929;DHT22;1474;51.460;7.150;2022-09-20T14:37:52;16.10;99.90
2929;DHT22;1474;51.460;7.150;2022-09-20T14:40:39;16.20;99.90
2929;DHT22;1474;51.460;7.150;2022-09-20T14:43:36;16.20;99.90
2929;DHT22;1474;51.460;7.150;2022-09-20T14:46:04;16.20;99.90
2929;DHT22;1474;51.460;7.150;2022-09-20T14:48:33;16.20;99.90
2929;DHT22;1474;51.460;7.150;2022-09-20T14:53:44;16.20;99.90
2929;DHT22;1474;51.460;7.150;2022-09-20T14:56:12;16.30;99.90
2929;DHT22;1474;51.460;7.150;2022-09-20T15:01:25;16.40;99.90
2929;DHT22;1474;51.460;7.150;2022-09-20T15:03:52;16.50;99.90
2929;DHT22;1474;51.460;7.150;2022-09-20T15:06:18;16.40;99.90
2929;DHT22;1474;51.460;7.150;2022-09-20T15:08:44;16.30;99.90
2929;DHT22;1474;51.460;7.150;2022-09-20T15:11:14;16.30;99.90
2929;DHT22;1474;51.460;7.150;2022-09-20T15:13:40;16.30;99.90
2929;DHT22;1474;51.460;7.150;2022-09-20T15:16:06;16.40;99.90
2929;DHT22;1474;51.460;7.150;2022-09-20T15:18:36;16.40;99.90
2929;DHT22;1474;51.460;7.150;2022-09-20T15:21:03;16.50;99.90
2929;DHT22;1474;51.460;7.150;2022-09-20T15:23:30;16.40;99.90
2929;DHT22;1474;51.460;7.150;2022-09-20T15:25:56;16.30;99.90
2929;DHT22;1474;51.460;7.150;2022-09-20T15:28:22;16.30;99.90
2929;DHT22;1474;51.460;7.150;2022-09-20T15:30:50;16.30;99.90
2929;DHT22;1474;51.460;7.150;2022-09-20T15:33:17;16.30;99.90
2929;DHT22;1474;51.460;7.150;2022-09-20T15:35:44;16.30;99.90
2929;DHT22;1474;51.460;7.150;2022-09-20T15:38:10;16.40;99.90
2929;DHT22;1474;51.460;7.150;2022-09-20T15:40:40;16.30;99.90
2929;DHT22;1474;51.460;7.150;2022-09-20T15:43:07;16.20;99.90
2929;DHT22;1474;51.460;7.150;2022-09-20T15:45:34;16.20;99.90
2929;DHT22;1474;51.460;7.150;2022-09-20T15:48:00;16.30;99.90
2929;DHT22;1474;51.460;7.150;2022-09-20T15:50:27;16.30;99.90
2929;DHT22;1474;51.460;7.150;2022-09-20T15:52:53;16.30;99.90
2929;DHT22;1474;51.460;7.150;2022-09-20T15:55:20;16.20;99.90
2929;DHT22;1474;51.460;7.150;2022-09-20T15:57:46;16.20;99.90
2929;DHT22;1474;51.460;7.150;2022-09-20T16:00:13;16.20;99.90
2929;DHT22;1474;51.460;7.150;2022-09-20T16:02:41;16.00;99.90
2929;DHT22;1474;51.460;7.150;2022-09-20T16:05:07;16.00;99.90
2929;DHT22;1474;51.460;7.150;2022-09-20T16:07:34;16.00;99.90
2929;DHT22;1474;51.460;7.150;2022-09-20T16:10:00;16.00;99.90
2929;DHT22;1474;51.460;7.150;2022-09-20T16:12:25;16.10;99.90
2929;DHT22;1474;51.460;7.150;2022-09-20T16:14:51;16.20;99.90
2929;DHT22;1474;51.460;7.150;2022-09-20T16:17:17;16.10;99.90
2929;DHT22;1474;51.460;7.150;2022-09-20T16:20:03;16.00;99.90
2929;DHT22;1474;51.460;7.150;2022-09-20T16:22:29;16.00;99.90
2929;DHT22;1474;51.460;7.150;2022-09-20T16:24:58;15.90;99.90
2929;DHT22;1474;51.460;7.150;2022-09-20T16:27:26;15.90;99.90
2929;DHT22;1474;51.460;7.150;2022-09-20T16:29:51;15.90;99.90
2929;DHT22;1474;51.460;7.150;2022-09-20T16:32:17;15.90;99.90
2929;DHT22;1474;51.460;7.150;2022-09-20T16:34:43;16.00;99.90
2929;DHT22;1474;51.460;7.150;2022-09-20T16:37:10;15.90;99.90
2929;DHT22;1474;51.460;7.150;2022-09-20T16:39:39;15.80;99.90
2929;DHT22;1474;51.460;7.150;2022-09-20T16:42:06;15.80;99.90
2929;DHT22;1474;51.460;7.150;2022-09-20T16:44:38;15.80;99.90
2929;DHT22;1474;51.460;7.150;2022-09-20T16:47:06;15.70;99.90
2929;DHT22;1474;51.460;7.150;2022-09-20T16:49:35;15.70;99.90
2929;DHT22;1474;51.460;7.150;2022-09-20T16:52:03;15.70;99.90
2929;DHT22;1474;51.460;7.150;2022-09-20T16:54:29;15.60;99.90
2929;DHT22;1474;51.460;7.150;2022-09-20T16:56:55;15.60;99.90
2929;DHT22;1474;51.460;7.150;2022-09-20T16:59:20;15.50;99.90
2929;DHT22;1474;51.460;7.150;2022-09-20T17:01:47;15.40;99.90
2929;DHT22;1474;51.460;7.150;2022-09-20T17:04:14;15.40;99.90
2929;DHT22;1474;51.460;7.150;2022-09-20T17:06:42;15.40;99.90
2929;DHT22;1474;51.460;7.150;2022-09-20T17:09:08;15.30;99.90
2929;DHT22;1474;51.460;7.150;2022-09-20T17:11:40;15.20;99.90
2929;DHT22;1474;51.460;7.150;2022-09-20T17:14:06;15.30;99.90
2929;DHT22;1474;51.460;7.150;2022-09-20T17:16:35;15.20;99.90
2929;DHT22;1474;51.460;7.150;2022-09-20T17:19:12;15.20;99.90
2929;DHT22;1474;51.460;7.150;2022-09-20T17:21:40;15.20;99.90
2929;DHT22;1474;51.460;7.150;2022-09-20T17:24:15;15.10;99.90
2929;DHT22;1474;51.460;7.150;2022-09-20T17:26:43;15.10;99.90
2929;DHT22;1474;51.460;7.150;2022-09-20T17:29:11;15.00;99.90
2929;DHT22;1474;51.460;7.150;2022-09-20T17:31:40;15.00;99.90
2929;DHT22;1474;51.460;7.150;2022-09-20T17:34:08;15.00;99.90
2929;DHT22;1474;51.460;7.150;2022-09-20T17:36:44;15.00;99.90
2929;DHT22;1474;51.460;7.150;2022-09-20T17:39:11;15.00;99.90
2929;DHT22;1474;51.460;7.150;2022-09-20T17:41:42;14.90;99.90
2929;DHT22;1474;51.460;7.150;2022-09-20T17:44:09;14.90;99.90
2929;DHT22;1474;51.460;7.150;2022-09-20T17:46:37;14.90;99.90
2929;DHT22;1474;51.460;7.150;2022-09-20T17:49:06;14.90;99.90
2929;DHT22;1474;51.460;7.150;2022-09-20T17:51:41;14.80;99.90
2929;DHT22;1474;51.460;7.150;2022-09-20T17:54:07;14.80;99.90
2929;DHT22;1474;51.460;7.150;2022-09-20T17:56:37;14.70;99.90
2929;DHT22;1474;51.460;7.150;2022-09-20T17:59:04;14.60;99.90
2929;DHT22;1474;51.460;7.150;2022-09-20T18:01:31;14.50;99.90
2929;DHT22;1474;51.460;7.150;2022-09-20T18:03:59;14.40;99.90
2929;DHT22;1474;51.460;7.150;2022-09-20T18:09:06;14.30;99.90
2929;DHT22;1474;51.460;7.150;2022-09-20T18:11:34;14.30;99.90
2929;DHT22;1474;51.460;7.150;2022-09-20T18:14:01;14.30;99.90
2929;DHT22;1474;51.460;7.150;2022-09-20T18:16:28;14.20;99.90
2929;DHT22;1474;51.460;7.150;2022-09-20T18:18:55;14.20;99.90
2929;DHT22;1474;51.460;7.150;2022-09-20T18:21:23;14.10;99.90
2929;DHT22;1474;51.460;7.150;2022-09-20T18:23:49;14.10;99.90
2929;DHT22;1474;51.460;7.150;2022-09-20T18:26:20;14.10;99.90
2929;DHT22;1474;51.460;7.150;2022-09-20T18:29:03;14.10;99.90
2929;DHT22;1474;51.460;7.150;2022-09-20T18:34:02;14.00;99.90
2929;DHT22;1474;51.460;7.150;2022-09-20T18:36:30;14.00;99.90
2929;DHT22;1474;51.460;7.150;2022-09-20T18:38:57;14.00;99.90
2929;DHT22;1474;51.460;7.150;2022-09-20T18:41:33;13.90;99.90
2929;DHT22;1474;51.460;7.150;2022-09-20T18:44:01;13.90;99.90
2929;DHT22;1474;51.460;7.150;2022-09-20T18:46:29;13.80;99.90
2929;DHT22;1474;51.460;7.150;2022-09-20T18:48:57;13.80;99.90
2929;DHT22;1474;51.460;7.150;2022-09-20T18:51:25;13.80;99.90
2929;DHT22;1474;51.460;7.150;2022-09-20T18:53:53;13.70;99.90
2929;DHT22;1474;51.460;7.150;2022-09-20T18:56:22;13.70;99.90
2929;DHT22;1474;51.460;7.150;2022-09-20T18:58:59;13.60;99.90
2929;DHT22;1474;51.460;7.150;2022-09-20T19:07:47;13.50;99.90
2929;DHT22;1474;51.460;7.150;2022-09-20T19:10:27;13.40;99.90
2929;DHT22;1474;51.460;7.150;2022-09-20T19:13:29;13.30;99.90
2929;DHT22;1474;51.460;7.150;2022-09-20T19:18:45;13.10;99.90
2929;DHT22;1474;51.460;7.150;2022-09-20T19:21:35;13.10;99.90
2929;DHT22;1474;51.460;7.150;2022-09-20T19:26:52;13.10;99.90
2929;DHT22;1474;51.460;7.150;2022-09-20T19:29:26;13.10;99.90
2929;DHT22;1474;51.460;7.150;2022-09-20T19:31:57;13.00;99.90
2929;DHT22;1474;51.460;7.150;2022-09-20T19:34:24;13.00;99.90
2929;DHT22;1474;51.460;7.150;2022-09-20T19:37:32;13.00;99.90
2929;DHT22;1474;51.460;7.150;2022-09-20T19:43:42;12.90;99.90
2929;DHT22;1474;51.460;7.150;2022-09-20T19:46:43;12.90;99.90
2929;DHT22;1474;51.460;7.150;2022-09-20T19:49:17;12.80;99.90
2929;DHT22;1474;51.460;7.150;2022-09-20T19:51:44;12.80;99.90
2929;DHT22;1474;51.460;7.150;2022-09-20T19:54:12;12.70;99.90
2929;DHT22;1474;51.460;7.150;2022-09-20T19:56:53;12.70;99.90
2929;DHT22;1474;51.460;7.150;2022-09-20T19:59:21;12.60;99.90
2929;DHT22;1474;51.460;7.150;2022-09-20T20:01:47;12.50;99.90
2929;DHT22;1474;51.460;7.150;2022-09-20T20:04:13;12.50;99.90
2929;DHT22;1474;51.460;7.150;2022-09-20T20:09:40;12.40;99.90
2929;DHT22;1474;51.460;7.150;2022-09-20T20:12:19;12.30;99.90
2929;DHT22;1474;51.460;7.150;2022-09-20T20:14:59;12.20;99.90
2929;DHT22;1474;51.460;7.150;2022-09-20T20:18:13;12.20;99.90
2929;DHT22;1474;51.460;7.150;2022-09-20T20:20:47;12.10;99.90
2929;DHT22;1474;51.460;7.150;2022-09-20T20:28:35;12.00;99.90
2929;DHT22;1474;51.460;7.150;2022-09-20T20:31:01;11.90;99.90
2929;DHT22;1474;51.460;7.150;2022-09-20T20:33:28;11.90;99.90
2929;DHT22;1474;51.460;7.150;2022-09-20T20:35:55;11.80;99.90
2929;DHT22;1474;51.460;7.150;2022-09-20T20:38:22;11.80;99.90
2929;DHT22;1474;51.460;7.150;2022-09-20T20:41:07;11.80;99.90
2929;DHT22;1474;51.460;7.150;2022-09-20T20:43:36;11.70;99.90
2929;DHT22;1474;51.460;7.150;2022-09-20T20:46:04;11.70;99.90
2929;DHT22;1474;51.460;7.150;2022-09-20T20:48:29;11.70;99.90
2929;DHT22;1474;51.460;7.150;2022-09-20T20:50:59;11.70;99.90
2929;DHT22;1474;51.460;7.150;2022-09-20T20:53:29;11.60;99.90
2929;DHT22;1474;51.460;7.150;2022-09-20T20:56:00;11.60;99.90
2929;DHT22;1474;51.460;7.150;2022-09-20T20:58:28;11.50;99.90
2929;DHT22;1474;51.460;7.150;2022-09-20T21:01:16;11.50;99.90
2929;DHT22;1474;51.460;7.150;2022-09-20T21:03:45;11.40;99.90
2929;DHT22;1474;51.460;7.150;2022-09-20T21:06:11;11.40;99.90
2929;DHT22;1474;51.460;7.150;2022-09-20T21:08:39;11.30;99.90
2929;DHT22;1474;51.460;7.150;2022-09-20T21:11:11;11.30;99.90
2929;DHT22;1474;51.460;7.150;2022-09-20T21:13:38;11.30;99.90
2929;DHT22;1474;51.460;7.150;2022-09-20T21:16:08;11.20;99.90
2929;DHT22;1474;51.460;7.150;2022-09-20T21:18:36;11.20;99.90
2929;DHT22;1474;51.460;7.150;2022-09-20T21:21:03;11.20;99.90
2929;DHT22;1474;51.460;7.150;2022-09-20T21:23:33;11.10;99.90
2929;DHT22;1474;51.460;7.150;2022-09-20T21:26:00;11.10;99.90
2929;DHT22;1474;51.460;7.150;2022-09-20T21:28:31;11.10;99.90
2929;DHT22;1474;51.460;7.150;2022-09-20T21:30:57;11.00;99.90
2929;DHT22;1474;51.460;7.150;2022-09-20T21:33:23;11.00;99.90
2929;DHT22;1474;51.460;7.150;2022-09-20T21:35:50;10.90;99.90
2929;DHT22;1474;51.460;7.150;2022-09-20T21:38:16;11.00;99.90
2929;DHT22;1474;51.460;7.150;2022-09-20T21:40:42;10.90;99.90
2929;DHT22;1474;51.460;7.150;2022-09-20T21:43:08;10.80;99.90